Time,TemperatureF,DewpointF,PressureIn,WindDirection,WindDirectionDegrees,WindSpeedMPH,WindSpeedGustMPH,Humidity,HourlyPrecipIn,Conditions,Clouds,dailyrainin,SoftwareType,DateUTC
2013-05-03 00:02:00,35.8,33.4,29.75,NNW,338,5.6,9.2,91,0.00,,,0.00,WUHU216HW,2013-05-03 05:02:00,
2013-05-03 00:07:00,35.6,33.2,29.76,North,0,6.3,8.5,91,0.00,,,0.00,WUHU216HW,2013-05-03 05:07:00,
2013-05-03 00:12:00,35.6,33.2,29.75,North,0,12.1,12.1,91,0.00,,,0.00,WUHU216HW,2013-05-03 05:12:00,
2013-05-03 00:17:00,35.8,33.4,29.75,NNW,338,4.7,12.1,91,0.00,,,0.00,WUHU216HW,2013-05-03 05:17:00,
2013-05-03 00:22:00,35.6,33.2,29.75,NNW,338,6.3,12.1,91,0.00,,,0.00,WUHU216HW,2013-05-03 05:22:00,
2013-05-03 00:27:00,35.5,33.0,29.74,NNE,23,11.0,11.0,91,0.00,,,0.00,WUHU216HW,2013-05-03 05:27:00,
2013-05-03 00:32:00,35.5,33.0,29.75,North,0,7.8,11.0,91,0.00,,,0.00,WUHU216HW,2013-05-03 05:32:00,
2013-05-03 00:37:00,35.5,33.0,29.74,NNW,338,5.4,11.0,91,0.00,,,0.00,WUHU216HW,2013-05-03 05:37:00,
2013-05-03 00:42:00,35.3,32.9,29.73,North,0,12.1,12.1,91,0.00,,,0.00,WUHU216HW,2013-05-03 05:42:00,
2013-05-03 00:47:00,35.3,32.9,29.73,NNE,23,15.0,18.8,91,0.00,,,0.00,WUHU216HW,2013-05-03 05:47:00,
2013-05-03 00:52:00,35.1,32.7,29.73,NNW,338,9.6,18.8,91,0.00,,,0.00,WUHU216HW,2013-05-03 05:52:00,
2013-05-03 00:57:00,35.1,32.7,29.72,NNE,23,8.7,15.7,91,0.00,,,0.00,WUHU216HW,2013-05-03 05:57:00,
2013-05-03 01:02:00,35.1,32.7,29.72,North,0,11.0,15.7,91,0.00,,,0.00,WUHU216HW,2013-05-03 06:02:00,
2013-05-03 01:07:00,35.1,32.7,29.72,North,0,13.9,13.9,91,0.00,,,0.00,WUHU216HW,2013-05-03 06:07:00,
2013-05-03 01:12:00,35.1,32.7,29.72,NNE,23,8.5,13.9,91,0.00,,,0.00,WUHU216HW,2013-05-03 06:12:00,
2013-05-03 01:17:00,34.9,32.8,29.71,North,0,15.4,15.4,92,0.01,,,0.00,WUHU216HW,2013-05-03 06:17:00,
2013-05-03 01:22:00,34.9,32.8,29.70,West,270,6.9,15.4,92,0.02,,,0.00,WUHU216HW,2013-05-03 06:22:00,
2013-05-03 01:27:00,34.9,32.8,29.71,NNE,23,12.8,15.4,92,0.02,,,0.02,WUHU216HW,2013-05-03 06:27:00,
2013-05-03 01:32:00,34.9,32.8,29.70,North,0,11.0,13.2,92,0.03,,,0.02,WUHU216HW,2013-05-03 06:32:00,
2013-05-03 01:37:00,34.9,32.8,29.70,North,0,8.7,12.8,92,0.03,,,0.02,WUHU216HW,2013-05-03 06:37:00,
2013-05-03 01:42:00,34.9,32.8,29.71,NNW,338,4.0,11.0,92,0.03,,,0.02,WUHU216HW,2013-05-03 06:42:00,
2013-05-03 01:47:00,34.9,32.8,29.71,NNE,23,4.5,10.1,92,0.03,,,0.02,WUHU216HW,2013-05-03 06:47:00,
2013-05-03 01:52:00,34.9,32.8,29.71,NNW,338,5.8,6.5,92,0.03,,,0.02,WUHU216HW,2013-05-03 06:52:00,
2013-05-03 01:57:00,34.9,32.8,29.70,NNW,338,4.9,6.5,92,0.03,,,0.02,WUHU216HW,2013-05-03 06:57:00,
2013-05-03 02:02:00,34.9,32.8,29.71,NNW,338,3.4,8.5,92,0.03,,,0.02,WUHU216HW,2013-05-03 07:02:00,
2013-05-03 02:07:00,34.9,32.8,29.70,NNW,338,5.4,8.5,92,0.03,,,0.02,WUHU216HW,2013-05-03 07:07:00,
2013-05-03 02:12:00,34.7,32.6,29.70,NNW,338,4.7,12.1,92,0.04,,,0.04,WUHU216HW,2013-05-03 07:12:00,
2013-05-03 02:17:00,34.6,32.4,29.70,NNW,338,6.3,12.1,92,0.03,,,0.04,WUHU216HW,2013-05-03 07:17:00,
2013-05-03 02:22:00,34.6,32.7,29.69,North,0,7.4,7.4,93,0.02,,,0.04,WUHU216HW,2013-05-03 07:22:00,
2013-05-03 02:27:00,34.6,32.7,29.70,NNE,23,6.3,7.6,93,0.03,,,0.05,WUHU216HW,2013-05-03 07:27:00,
2013-05-03 02:32:00,34.6,32.7,29.69,NNE,23,4.3,7.6,93,0.02,,,0.05,WUHU216HW,2013-05-03 07:32:00,
2013-05-03 02:37:00,34.6,32.7,29.69,NNE,23,5.4,6.3,93,0.02,,,0.05,WUHU216HW,2013-05-03 07:37:00,
2013-05-03 02:42:00,34.6,32.7,29.69,NNE,23,5.1,6.5,93,0.02,,,0.05,WUHU216HW,2013-05-03 07:42:00,
2013-05-03 02:47:00,34.6,32.7,29.68,North,0,7.6,7.6,93,0.03,,,0.05,WUHU216HW,2013-05-03 07:47:00,
2013-05-03 02:52:00,34.6,32.7,29.68,North,0,4.5,7.6,93,0.03,,,0.05,WUHU216HW,2013-05-03 07:52:00,
2013-05-03 02:57:00,34.7,32.9,29.68,NNE,23,10.5,11.4,93,0.03,,,0.05,WUHU216HW,2013-05-03 07:57:00,
2013-05-03 03:02:00,34.7,32.9,29.67,NNE,23,14.5,14.5,93,0.03,,,0.05,WUHU216HW,2013-05-03 08:02:00,
2013-05-03 03:07:00,34.7,32.9,29.67,North,0,12.1,14.5,93,0.03,,,0.05,WUHU216HW,2013-05-03 08:07:00,
2013-05-03 03:12:00,34.7,32.9,29.67,North,0,13.0,14.5,93,0.02,,,0.05,WUHU216HW,2013-05-03 08:12:00,
2013-05-03 03:17:00,34.7,32.9,29.66,NNE,23,10.3,13.0,93,0.02,,,0.05,WUHU216HW,2013-05-03 08:17:00,
2013-05-03 03:22:00,34.7,32.9,29.66,NNE,23,12.1,14.5,93,0.01,,,0.05,WUHU216HW,2013-05-03 08:22:00,
2013-05-03 03:27:00,34.7,32.9,29.66,NNE,23,12.1,14.5,93,0.01,,,0.05,WUHU216HW,2013-05-03 08:27:00,
2013-05-03 03:32:00,34.9,33.0,29.66,North,0,6.3,12.1,93,0.01,,,0.05,WUHU216HW,2013-05-03 08:32:00,
2013-05-03 03:37:00,34.7,32.9,29.66,NNE,23,6.7,12.1,93,0.01,,,0.05,WUHU216HW,2013-05-03 08:37:00,
2013-05-03 03:42:00,34.7,32.9,29.67,NNW,338,8.3,8.3,93,0.01,,,0.05,WUHU216HW,2013-05-03 08:42:00,
2013-05-03 03:47:00,34.7,32.9,29.67,North,0,10.5,10.5,93,0.00,,,0.05,WUHU216HW,2013-05-03 08:47:00,
2013-05-03 03:52:00,34.7,32.9,29.67,North,0,13.4,13.4,93,0.00,,,0.05,WUHU216HW,2013-05-03 08:52:00,
2013-05-03 03:57:00,34.7,32.9,29.67,North,0,9.6,13.4,93,0.00,,,0.05,WUHU216HW,2013-05-03 08:57:00,
2013-05-03 04:02:00,34.7,32.9,29.67,NNE,23,3.4,13.4,93,0.00,,,0.05,WUHU216HW,2013-05-03 09:02:00,
2013-05-03 04:07:00,34.9,33.0,29.67,North,0,7.8,10.7,93,0.00,,,0.05,WUHU216HW,2013-05-03 09:07:00,
2013-05-03 04:12:00,34.9,33.0,29.66,North,0,8.5,8.5,93,0.00,,,0.05,WUHU216HW,2013-05-03 09:12:00,
2013-05-03 04:17:00,34.9,33.0,29.67,North,0,10.1,11.4,93,0.00,,,0.05,WUHU216HW,2013-05-03 09:17:00,
2013-05-03 04:22:00,34.9,33.0,29.66,North,0,8.9,11.4,93,0.00,,,0.05,WUHU216HW,2013-05-03 09:22:00,
2013-05-03 04:27:00,34.9,33.0,29.66,North,0,6.7,10.1,93,0.00,,,0.05,WUHU216HW,2013-05-03 09:27:00,
2013-05-03 04:32:00,34.9,33.0,29.66,North,0,9.2,9.4,93,0.00,,,0.05,WUHU216HW,2013-05-03 09:32:00,
2013-05-03 04:37:00,35.1,33.2,29.67,North,0,9.8,11.2,93,0.00,,,0.05,WUHU216HW,2013-05-03 09:37:00,
2013-05-03 04:42:00,35.1,33.2,29.67,North,0,8.1,11.2,93,0.00,,,0.05,WUHU216HW,2013-05-03 09:42:00,
2013-05-03 04:47:00,35.3,33.4,29.67,North,0,8.5,9.8,93,0.00,,,0.05,WUHU216HW,2013-05-03 09:47:00,
2013-05-03 04:52:00,35.3,33.4,29.67,NNE,23,9.2,9.4,93,0.00,,,0.05,WUHU216HW,2013-05-03 09:52:00,
2013-05-03 04:57:00,35.3,33.4,29.67,NNW,338,3.4,10.3,93,0.00,,,0.05,WUHU216HW,2013-05-03 09:57:00,
2013-05-03 05:02:00,35.3,33.4,29.67,NNE,23,3.8,10.3,93,0.00,,,0.05,WUHU216HW,2013-05-03 10:02:00,
2013-05-03 05:07:00,35.5,33.6,29.66,North,0,8.5,9.8,93,0.00,,,0.05,WUHU216HW,2013-05-03 10:07:00,
2013-05-03 05:12:00,35.5,33.6,29.66,NNE,23,7.6,9.8,93,0.00,,,0.05,WUHU216HW,2013-05-03 10:12:00,
2013-05-03 05:17:00,35.5,33.8,29.66,North,0,10.5,13.6,94,0.00,,,0.05,WUHU216HW,2013-05-03 10:17:00,
2013-05-03 05:22:00,35.6,34.0,29.65,North,0,18.1,18.1,94,0.00,,,0.05,WUHU216HW,2013-05-03 10:22:00,
2013-05-03 05:27:00,35.6,34.0,29.65,North,0,11.6,18.1,94,0.00,,,0.05,WUHU216HW,2013-05-03 10:27:00,
2013-05-03 05:32:00,35.6,34.0,29.65,North,0,10.7,18.1,94,0.01,,,0.07,WUHU216HW,2013-05-03 10:32:00,
2013-05-03 05:37:00,35.6,34.0,29.66,North,0,11.0,12.8,94,0.01,,,0.07,WUHU216HW,2013-05-03 10:37:00,
2013-05-03 05:42:00,35.6,34.0,29.65,North,0,16.3,16.3,94,0.01,,,0.07,WUHU216HW,2013-05-03 10:42:00,
2013-05-03 05:47:00,35.6,34.0,29.65,North,0,12.8,16.3,94,0.01,,,0.07,WUHU216HW,2013-05-03 10:47:00,
2013-05-03 05:52:00,35.6,34.0,29.65,NE,45,12.8,16.3,94,0.01,,,0.07,WUHU216HW,2013-05-03 10:52:00,
2013-05-03 05:57:00,35.6,34.0,29.66,North,0,13.4,13.4,94,0.01,,,0.07,WUHU216HW,2013-05-03 10:57:00,
2013-05-03 06:02:00,35.6,34.0,29.66,North,0,9.8,13.4,94,0.01,,,0.07,WUHU216HW,2013-05-03 11:02:00,
2013-05-03 06:07:00,35.8,34.2,29.66,North,0,11.9,13.4,94,0.01,,,0.07,WUHU216HW,2013-05-03 11:07:00,
2013-05-03 06:12:00,35.8,34.2,29.66,North,0,9.8,11.9,94,0.01,,,0.07,WUHU216HW,2013-05-03 11:12:00,
2013-05-03 06:17:00,35.8,34.2,29.65,North,0,15.0,15.0,94,0.01,,,0.07,WUHU216HW,2013-05-03 11:17:00,
2013-05-03 06:22:00,35.6,34.0,29.65,North,0,12.5,15.7,94,0.01,,,0.07,WUHU216HW,2013-05-03 11:22:00,
2013-05-03 06:27:00,35.6,34.0,29.65,NNE,23,11.0,15.7,94,0.01,,,0.07,WUHU216HW,2013-05-03 11:27:00,
2013-05-03 06:32:00,35.6,34.0,29.65,NNE,23,13.0,14.8,94,0.00,,,0.07,WUHU216HW,2013-05-03 11:32:00,
2013-05-03 06:37:00,35.6,34.0,29.65,North,0,11.9,14.8,94,0.00,,,0.07,WUHU216HW,2013-05-03 11:37:00,
2013-05-03 06:42:00,35.6,34.0,29.65,North,0,14.3,14.3,94,0.00,,,0.07,WUHU216HW,2013-05-03 11:42:00,
2013-05-03 06:47:00,35.6,34.0,29.64,NNE,23,13.9,14.3,94,0.00,,,0.07,WUHU216HW,2013-05-03 11:47:00,
2013-05-03 06:52:00,35.6,34.0,29.66,North,0,9.6,14.3,94,0.00,,,0.07,WUHU216HW,2013-05-03 11:52:00,
2013-05-03 06:57:00,35.8,34.2,29.66,North,0,7.8,13.9,94,0.00,,,0.07,WUHU216HW,2013-05-03 11:57:00,
2013-05-03 07:02:00,35.8,34.2,29.66,North,0,5.4,11.0,94,0.00,,,0.07,WUHU216HW,2013-05-03 12:02:00,
2013-05-03 07:07:00,36.0,34.4,29.66,North,0,9.4,11.0,94,0.00,,,0.07,WUHU216HW,2013-05-03 12:07:00,
2013-05-03 07:12:00,36.0,34.4,29.67,NNE,23,8.3,9.4,94,0.00,,,0.07,WUHU216HW,2013-05-03 12:12:00,
2013-05-03 07:17:00,36.0,34.4,29.67,North,0,10.1,10.1,94,0.00,,,0.07,WUHU216HW,2013-05-03 12:17:00,
2013-05-03 07:22:00,36.0,34.4,29.67,North,0,10.1,10.1,94,0.00,,,0.07,WUHU216HW,2013-05-03 12:22:00,
2013-05-03 07:27:00,36.0,34.4,29.66,North,0,10.1,10.1,94,0.00,,,0.07,WUHU216HW,2013-05-03 12:27:00,
2013-05-03 07:32:00,36.4,35.0,29.65,North,0,12.5,12.5,95,0.01,,,0.07,WUHU216HW,2013-05-03 12:32:00,
2013-05-03 07:37:00,36.4,35.0,29.64,North,0,10.3,12.5,95,0.01,,,0.07,WUHU216HW,2013-05-03 12:37:00,
2013-05-03 07:42:00,36.5,35.2,29.64,North,0,9.2,12.5,95,0.01,,,0.07,WUHU216HW,2013-05-03 12:42:00,
2013-05-03 07:47:00,36.5,35.2,29.64,North,0,11.6,11.6,95,0.01,,,0.07,WUHU216HW,2013-05-03 12:47:00,
2013-05-03 07:52:00,36.4,35.0,29.65,North,0,4.0,11.6,95,0.01,,,0.07,WUHU216HW,2013-05-03 12:52:00,
2013-05-03 07:57:00,36.4,35.0,29.65,North,0,7.8,12.3,95,0.01,,,0.07,WUHU216HW,2013-05-03 12:57:00,
2013-05-03 08:02:00,36.4,35.0,29.65,NNE,23,12.8,12.8,95,0.02,,,0.09,WUHU216HW,2013-05-03 13:02:00,
2013-05-03 08:07:00,36.4,35.0,29.64,North,0,6.9,12.8,95,0.02,,,0.09,WUHU216HW,2013-05-03 13:07:00,
2013-05-03 08:12:00,36.4,35.0,29.64,NNE,23,7.8,13.9,95,0.03,,,0.10,WUHU216HW,2013-05-03 13:12:00,
2013-05-03 08:17:00,36.4,35.0,29.64,North,0,8.9,13.9,95,0.03,,,0.10,WUHU216HW,2013-05-03 13:17:00,
2013-05-03 08:22:00,36.4,35.0,29.65,NE,45,6.5,12.1,95,0.04,,,0.11,WUHU216HW,2013-05-03 13:22:00,
2013-05-03 08:27:00,36.4,35.0,29.64,NNE,23,7.6,12.1,95,0.05,,,0.12,WUHU216HW,2013-05-03 13:27:00,
2013-05-03 08:32:00,36.4,35.0,29.64,North,0,12.1,12.1,95,0.04,,,0.12,WUHU216HW,2013-05-03 13:32:00,
2013-05-03 08:37:00,36.4,35.0,29.64,NNE,23,11.2,12.1,95,0.04,,,0.12,WUHU216HW,2013-05-03 13:37:00,
2013-05-03 08:42:00,36.4,35.0,29.64,North,0,7.2,12.1,95,0.05,,,0.13,WUHU216HW,2013-05-03 13:42:00,
2013-05-03 08:47:00,36.5,35.2,29.63,North,0,13.4,13.4,95,0.06,,,0.14,WUHU216HW,2013-05-03 13:47:00,
2013-05-03 08:52:00,36.5,35.2,29.63,NNE,23,12.8,13.4,95,0.06,,,0.14,WUHU216HW,2013-05-03 13:52:00,
2013-05-03 08:57:00,36.5,35.5,29.62,NNE,23,11.9,15.7,96,0.06,,,0.15,WUHU216HW,2013-05-03 13:57:00,
2013-05-03 09:02:00,36.5,35.5,29.63,North,0,8.5,15.7,96,0.07,,,0.16,WUHU216HW,2013-05-03 14:02:00,
2013-05-03 09:07:00,36.7,35.6,29.62,North,0,9.2,11.9,96,0.08,,,0.17,WUHU216HW,2013-05-03 14:07:00,
2013-05-03 09:12:00,36.7,35.4,29.62,WNW,293,10.7,10.7,95,0.08,,,0.18,WUHU216HW,2013-05-03 14:12:00,
2013-05-03 09:17:00,36.9,35.6,29.62,NNE,23,11.2,11.4,95,0.08,,,0.18,WUHU216HW,2013-05-03 14:17:00,
2013-05-03 09:22:00,37.1,35.7,29.63,North,0,8.5,11.4,95,0.08,,,0.19,WUHU216HW,2013-05-03 14:22:00,
2013-05-03 09:27:00,37.1,35.7,29.63,North,0,8.1,11.2,95,0.07,,,0.19,WUHU216HW,2013-05-03 14:27:00,
2013-05-03 09:32:00,37.1,35.7,29.62,North,0,9.2,10.3,95,0.08,,,0.20,WUHU216HW,2013-05-03 14:32:00,
2013-05-03 09:37:00,37.3,35.9,29.61,North,0,10.1,11.9,95,0.07,,,0.20,WUHU216HW,2013-05-03 14:37:00,
2013-05-03 09:42:00,37.4,36.1,29.61,North,0,13.9,13.9,95,0.07,,,0.20,WUHU216HW,2013-05-03 14:42:00,
2013-05-03 09:47:00,37.6,36.5,29.61,North,0,11.2,13.9,96,0.06,,,0.20,WUHU216HW,2013-05-03 14:47:00,
2013-05-03 09:52:00,37.8,36.7,29.62,North,0,6.5,13.9,96,0.05,,,0.20,WUHU216HW,2013-05-03 14:52:00,
2013-05-03 09:57:00,37.8,36.7,29.62,NNE,23,10.3,12.1,96,0.04,,,0.20,WUHU216HW,2013-05-03 14:57:00,
2013-05-03 10:02:00,37.8,36.5,29.62,NNE,23,8.5,12.1,95,0.04,,,0.20,WUHU216HW,2013-05-03 15:02:00,
2013-05-03 10:07:00,37.8,36.5,29.62,NNE,23,7.6,10.3,95,0.03,,,0.20,WUHU216HW,2013-05-03 15:07:00,
2013-05-03 10:12:00,38.0,36.6,29.62,NE,45,5.8,8.9,95,0.02,,,0.20,WUHU216HW,2013-05-03 15:12:00,
2013-05-03 10:17:00,38.2,36.8,29.62,NNE,23,9.6,9.6,95,0.02,,,0.20,WUHU216HW,2013-05-03 15:17:00,
2013-05-03 10:22:00,38.3,37.0,29.61,North,0,5.8,9.6,95,0.01,,,0.20,WUHU216HW,2013-05-03 15:22:00,
2013-05-03 10:27:00,38.3,37.0,29.61,North,0,4.7,9.6,95,0.00,,,0.20,WUHU216HW,2013-05-03 15:27:00,
2013-05-03 10:32:00,38.5,37.2,29.61,North,0,4.5,5.8,95,0.00,,,0.20,WUHU216HW,2013-05-03 15:32:00,
2013-05-03 10:37:00,38.7,37.4,29.61,NNE,23,13.6,13.6,95,0.00,,,0.20,WUHU216HW,2013-05-03 15:37:00,
2013-05-03 10:42:00,38.7,37.4,29.62,NE,45,10.5,13.6,95,0.00,,,0.20,WUHU216HW,2013-05-03 15:42:00,
2013-05-03 10:47:00,38.9,37.5,29.61,North,0,12.5,13.6,95,0.00,,,0.20,WUHU216HW,2013-05-03 15:47:00,
2013-05-03 10:52:00,38.7,37.4,29.62,North,0,5.6,12.5,95,0.00,,,0.20,WUHU216HW,2013-05-03 15:52:00,
2013-05-03 10:57:00,38.9,37.5,29.62,North,0,9.8,14.3,95,0.00,,,0.20,WUHU216HW,2013-05-03 15:57:00,
2013-05-03 11:02:00,39.1,37.7,29.62,NNE,23,4.7,14.3,95,0.00,,,0.20,WUHU216HW,2013-05-03 16:02:00,
2013-05-03 11:07:00,39.1,37.7,29.62,North,0,8.5,8.5,95,0.00,,,0.20,WUHU216HW,2013-05-03 16:07:00,
2013-05-03 11:12:00,39.1,37.7,29.62,North,0,11.2,11.9,95,0.00,,,0.20,WUHU216HW,2013-05-03 16:12:00,
2013-05-03 11:17:00,39.1,37.7,29.63,North,0,5.4,11.9,95,0.00,,,0.20,WUHU216HW,2013-05-03 16:17:00,
2013-05-03 11:22:00,39.1,37.7,29.63,North,0,8.5,11.2,95,0.00,,,0.20,WUHU216HW,2013-05-03 16:22:00,
2013-05-03 11:27:00,39.2,37.9,29.63,North,0,4.3,8.5,95,0.00,,,0.20,WUHU216HW,2013-05-03 16:27:00,
2013-05-03 11:32:00,39.2,37.9,29.62,NNW,338,4.7,8.5,95,0.00,,,0.20,WUHU216HW,2013-05-03 16:32:00,
2013-05-03 11:37:00,39.4,38.1,29.62,North,0,9.2,9.2,95,0.01,,,0.21,WUHU216HW,2013-05-03 16:37:00,
2013-05-03 11:42:00,39.6,38.3,29.61,NNE,23,9.8,9.8,95,0.01,,,0.21,WUHU216HW,2013-05-03 16:42:00,
2013-05-03 11:47:00,39.6,38.3,29.61,NNE,23,5.4,9.8,95,0.01,,,0.21,WUHU216HW,2013-05-03 16:47:00,
2013-05-03 11:52:00,39.6,38.3,29.61,NNE,23,5.8,9.8,95,0.01,,,0.21,WUHU216HW,2013-05-03 16:52:00,
2013-05-03 11:57:00,39.8,38.4,29.61,North,0,8.9,8.9,95,0.01,,,0.21,WUHU216HW,2013-05-03 16:57:00,
2013-05-03 12:02:00,39.8,38.4,29.61,North,0,7.6,8.9,95,0.01,,,0.21,WUHU216HW,2013-05-03 17:02:00,
2013-05-03 12:07:00,40.0,38.6,29.61,NE,45,3.4,8.9,95,0.01,,,0.21,WUHU216HW,2013-05-03 17:07:00,
2013-05-03 12:12:00,40.0,38.3,29.61,NNE,23,2.9,7.6,94,0.01,,,0.21,WUHU216HW,2013-05-03 17:12:00,
2013-05-03 12:17:00,40.1,38.5,29.60,NNE,23,7.6,7.6,94,0.01,,,0.21,WUHU216HW,2013-05-03 17:17:00,
2013-05-03 12:22:00,40.3,39.0,29.59,North,0,8.5,11.6,95,0.01,,,0.21,WUHU216HW,2013-05-03 17:22:00,
2013-05-03 12:27:00,40.7,39.3,29.59,North,0,6.9,11.6,95,0.02,,,0.22,WUHU216HW,2013-05-03 17:27:00,
2013-05-03 12:32:00,41.0,39.7,29.59,North,0,12.1,14.5,95,0.02,,,0.22,WUHU216HW,2013-05-03 17:32:00,
2013-05-03 12:37:00,41.0,39.7,29.59,North,0,13.9,14.5,95,0.01,,,0.22,WUHU216HW,2013-05-03 17:37:00,
2013-05-03 12:42:00,41.0,39.7,29.60,North,0,6.9,14.1,95,0.01,,,0.22,WUHU216HW,2013-05-03 17:42:00,
2013-05-03 12:47:00,40.9,39.5,29.59,North,0,7.8,13.9,95,0.01,,,0.22,WUHU216HW,2013-05-03 17:47:00,
2013-05-03 12:52:00,41.2,39.9,29.60,North,0,7.6,8.5,95,0.01,,,0.22,WUHU216HW,2013-05-03 17:52:00,
2013-05-03 12:57:00,41.2,39.9,29.61,North,0,1.8,8.5,95,0.02,,,0.23,WUHU216HW,2013-05-03 17:57:00,
2013-05-03 13:02:00,41.0,39.7,29.59,North,0,6.9,7.6,95,0.02,,,0.23,WUHU216HW,2013-05-03 18:02:00,
2013-05-03 13:07:00,41.2,39.9,29.58,North,0,9.8,9.8,95,0.02,,,0.23,WUHU216HW,2013-05-03 18:07:00,
2013-05-03 13:12:00,41.8,40.4,29.58,North,0,9.8,11.9,95,0.02,,,0.23,WUHU216HW,2013-05-03 18:12:00,
2013-05-03 13:18:00,42.1,40.8,29.58,North,0,9.8,12.8,95,0.02,,,0.23,WUHU216HW,2013-05-03 18:18:00,
2013-05-03 13:23:00,42.5,41.1,29.58,NNE,23,9.4,12.8,95,0.02,,,0.23,WUHU216HW,2013-05-03 18:23:00,
2013-05-03 13:28:00,42.7,41.3,29.58,North,0,2.5,9.8,95,0.02,,,0.24,WUHU216HW,2013-05-03 18:28:00,
2013-05-03 13:33:00,42.5,41.1,29.59,ESE,113,5.8,9.8,95,0.02,,,0.24,WUHU216HW,2013-05-03 18:33:00,
2013-05-03 13:38:00,42.5,41.1,29.60,South,180,3.4,6.3,95,0.02,,,0.24,WUHU216HW,2013-05-03 18:38:00,
2013-05-03 13:43:00,42.1,40.8,29.59,ESE,113,4.3,6.9,95,0.02,,,0.24,WUHU216HW,2013-05-03 18:43:00,
2013-05-03 13:48:00,42.5,41.1,29.58,North,0,6.7,9.2,95,0.02,,,0.24,WUHU216HW,2013-05-03 18:48:00,
2013-05-03 13:53:00,42.8,41.5,29.58,NE,45,6.3,9.2,95,0.01,,,0.24,WUHU216HW,2013-05-03 18:53:00,
2013-05-03 13:58:00,43.2,41.9,29.58,North,0,4.7,6.7,95,0.01,,,0.24,WUHU216HW,2013-05-03 18:58:00,
2013-05-03 14:03:00,43.2,41.9,29.58,North,0,9.2,11.9,95,0.01,,,0.24,WUHU216HW,2013-05-03 19:03:00,
2013-05-03 14:08:00,43.0,41.7,29.59,NNW,338,4.0,11.9,95,0.01,,,0.24,WUHU216HW,2013-05-03 19:08:00,
2013-05-03 14:13:00,43.0,41.7,29.58,ENE,68,3.8,9.2,95,0.01,,,0.24,WUHU216HW,2013-05-03 19:13:00,
2013-05-03 14:18:00,43.2,41.9,29.58,North,0,7.6,7.6,95,0.01,,,0.24,WUHU216HW,2013-05-03 19:18:00,
2013-05-03 14:23:00,43.4,42.0,29.58,North,0,2.7,7.8,95,0.01,,,0.24,WUHU216HW,2013-05-03 19:23:00,
2013-05-03 14:28:00,43.4,42.0,29.58,North,0,11.0,11.0,95,0.00,,,0.24,WUHU216HW,2013-05-03 19:28:00,
2013-05-03 14:33:00,43.2,41.9,29.59,North,0,11.4,11.9,95,0.00,,,0.24,WUHU216HW,2013-05-03 19:33:00,
2013-05-03 14:38:00,43.2,41.9,29.59,North,0,9.2,11.9,95,0.00,,,0.24,WUHU216HW,2013-05-03 19:38:00,
2013-05-03 14:43:00,43.2,41.9,29.58,North,0,6.7,11.4,95,0.00,,,0.24,WUHU216HW,2013-05-03 19:43:00,
2013-05-03 14:48:00,43.2,41.9,29.58,North,0,9.8,9.8,95,0.00,,,0.24,WUHU216HW,2013-05-03 19:48:00,
2013-05-03 14:53:00,43.4,42.0,29.58,NNE,23,6.0,10.7,95,0.00,,,0.24,WUHU216HW,2013-05-03 19:53:00,
2013-05-03 14:58:00,43.6,42.2,29.58,North,0,10.5,10.7,95,0.00,,,0.24,WUHU216HW,2013-05-03 19:58:00,
2013-05-03 15:03:00,43.6,42.2,29.58,North,0,4.9,10.5,95,0.00,,,0.24,WUHU216HW,2013-05-03 20:03:00,
2013-05-03 15:08:00,43.7,42.4,29.58,North,0,6.9,10.5,95,0.00,,,0.24,WUHU216HW,2013-05-03 20:08:00,
2013-05-03 15:13:00,43.7,42.4,29.58,NNE,23,8.7,10.1,95,0.00,,,0.24,WUHU216HW,2013-05-03 20:13:00,
2013-05-03 15:18:00,43.7,42.4,29.57,NNW,338,7.6,8.7,95,0.00,,,0.24,WUHU216HW,2013-05-03 20:18:00,
2013-05-03 15:23:00,43.7,42.4,29.58,North,0,8.5,8.7,95,0.00,,,0.24,WUHU216HW,2013-05-03 20:23:00,
2013-05-03 15:28:00,43.9,42.6,29.57,North,0,7.6,9.2,95,0.01,,,0.25,WUHU216HW,2013-05-03 20:28:00,
2013-05-03 15:33:00,43.9,42.6,29.57,NNE,23,6.9,9.2,95,0.01,,,0.25,WUHU216HW,2013-05-03 20:33:00,
2013-05-03 15:38:00,43.9,42.6,29.57,North,0,6.3,8.9,95,0.01,,,0.25,WUHU216HW,2013-05-03 20:38:00,
2013-05-03 15:43:00,43.9,42.6,29.56,North,0,6.0,10.7,95,0.01,,,0.25,WUHU216HW,2013-05-03 20:43:00,
2013-05-03 15:48:00,43.9,42.6,29.57,North,0,5.6,10.7,95,0.02,,,0.26,WUHU216HW,2013-05-03 20:48:00,
2013-05-03 15:53:00,44.1,42.8,29.57,North,0,4.9,10.3,95,0.02,,,0.26,WUHU216HW,2013-05-03 20:53:00,
2013-05-03 15:58:00,44.1,42.8,29.57,North,0,4.5,6.5,95,0.02,,,0.26,WUHU216HW,2013-05-03 20:58:00,
2013-05-03 16:03:00,44.1,42.8,29.56,North,0,12.1,12.1,95,0.02,,,0.26,WUHU216HW,2013-05-03 21:03:00,
2013-05-03 16:08:00,44.1,42.8,29.56,North,0,2.2,12.1,95,0.02,,,0.26,WUHU216HW,2013-05-03 21:08:00,
2013-05-03 16:13:00,44.1,42.8,29.57,North,0,4.9,12.1,95,0.02,,,0.26,WUHU216HW,2013-05-03 21:13:00,
2013-05-03 16:18:00,44.1,42.8,29.56,NNE,23,6.9,6.9,95,0.02,,,0.26,WUHU216HW,2013-05-03 21:18:00,
2013-05-03 16:23:00,44.3,42.9,29.56,North,0,6.3,6.9,95,0.03,,,0.27,WUHU216HW,2013-05-03 21:23:00,
2013-05-03 16:28:00,44.1,42.8,29.56,North,0,7.6,7.6,95,0.02,,,0.27,WUHU216HW,2013-05-03 21:28:00,
2013-05-03 16:33:00,44.3,42.9,29.56,North,0,2.5,7.6,95,0.02,,,0.27,WUHU216HW,2013-05-03 21:33:00,
2013-05-03 16:38:00,44.3,42.9,29.56,NNE,23,9.2,9.2,95,0.03,,,0.28,WUHU216HW,2013-05-03 21:38:00,
2013-05-03 16:43:00,44.3,42.9,29.55,NNW,338,7.6,9.2,95,0.03,,,0.28,WUHU216HW,2013-05-03 21:43:00,
2013-05-03 16:48:00,44.3,42.9,29.55,NNW,338,5.4,9.2,95,0.02,,,0.28,WUHU216HW,2013-05-03 21:48:00,
2013-05-03 16:53:00,44.5,43.1,29.55,NNE,23,5.8,8.3,95,0.02,,,0.28,WUHU216HW,2013-05-03 21:53:00,
2013-05-03 16:58:00,44.6,43.3,29.55,North,0,5.1,8.5,95,0.02,,,0.28,WUHU216HW,2013-05-03 21:58:00,
2013-05-03 17:03:00,44.8,43.5,29.55,North,0,2.7,8.5,95,0.02,,,0.28,WUHU216HW,2013-05-03 22:03:00,
2013-05-03 17:08:00,45.0,43.7,29.54,North,0,8.5,9.4,95,0.02,,,0.28,WUHU216HW,2013-05-03 22:08:00,
2013-05-03 17:13:00,45.0,43.7,29.54,North,0,8.9,9.8,95,0.02,,,0.28,WUHU216HW,2013-05-03 22:13:00,
2013-05-03 17:18:00,45.0,43.7,29.54,North,0,8.5,9.8,95,0.02,,,0.28,WUHU216HW,2013-05-03 22:18:00,
2013-05-03 17:23:00,45.2,43.8,29.54,North,0,9.2,9.6,95,0.01,,,0.28,WUHU216HW,2013-05-03 22:23:00,
2013-05-03 17:28:00,45.2,43.8,29.54,North,0,6.0,10.3,95,0.01,,,0.28,WUHU216HW,2013-05-03 22:28:00,
2013-05-03 17:33:00,45.2,43.8,29.54,North,0,6.7,10.3,95,0.01,,,0.28,WUHU216HW,2013-05-03 22:33:00,
2013-05-03 17:38:00,45.4,44.0,29.54,NNE,23,6.9,8.9,95,0.00,,,0.28,WUHU216HW,2013-05-03 22:38:00,
2013-05-03 17:43:00,45.4,44.0,29.54,North,0,7.2,9.8,95,0.01,,,0.29,WUHU216HW,2013-05-03 22:43:00,
2013-05-03 17:48:00,45.2,43.8,29.54,North,0,9.6,9.8,95,0.01,,,0.29,WUHU216HW,2013-05-03 22:48:00,
2013-05-03 17:53:00,45.4,44.0,29.54,North,0,8.1,9.6,95,0.01,,,0.29,WUHU216HW,2013-05-03 22:53:00,
2013-05-03 17:58:00,45.4,44.0,29.54,North,0,6.9,11.6,95,0.01,,,0.29,WUHU216HW,2013-05-03 22:58:00,
2013-05-03 18:03:00,45.4,44.0,29.54,North,0,8.9,11.6,95,0.01,,,0.29,WUHU216HW,2013-05-03 23:03:00,
2013-05-03 18:08:00,45.2,43.8,29.54,North,0,5.4,8.9,95,0.01,,,0.29,WUHU216HW,2013-05-03 23:08:00,
2013-05-03 18:13:00,45.4,44.0,29.54,NNE,23,6.3,8.9,95,0.01,,,0.29,WUHU216HW,2013-05-03 23:13:00,
2013-05-03 18:18:00,45.2,43.8,29.54,North,0,7.4,8.5,95,0.01,,,0.29,WUHU216HW,2013-05-03 23:18:00,
2013-05-03 18:23:00,45.2,43.8,29.54,North,0,6.7,8.5,95,0.01,,,0.29,WUHU216HW,2013-05-03 23:23:00,
2013-05-03 18:28:00,45.2,43.8,29.54,North,0,9.2,9.2,95,0.01,,,0.29,WUHU216HW,2013-05-03 23:28:00,
2013-05-03 18:33:00,45.4,44.0,29.53,North,0,9.2,10.1,95,0.02,,,0.30,WUHU216HW,2013-05-03 23:33:00,
2013-05-03 18:38:00,45.2,43.8,29.53,North,0,10.7,10.7,95,0.02,,,0.30,WUHU216HW,2013-05-03 23:38:00,
2013-05-03 18:43:00,45.2,43.8,29.53,North,0,10.5,10.7,95,0.01,,,0.30,WUHU216HW,2013-05-03 23:43:00,
2013-05-03 18:48:00,45.2,43.8,29.53,NE,45,9.8,10.7,95,0.01,,,0.30,WUHU216HW,2013-05-03 23:48:00,
2013-05-03 18:53:00,45.0,43.7,29.54,NNE,23,8.5,10.5,95,0.02,,,0.31,WUHU216HW,2013-05-03 23:53:00,
2013-05-03 18:58:00,45.0,43.7,29.55,NNW,338,9.4,9.8,95,0.02,,,0.31,WUHU216HW,2013-05-03 23:58:00,
2013-05-03 19:03:00,45.0,43.7,29.55,NE,45,7.8,9.4,95,0.02,,,0.31,WUHU216HW,2013-05-04 00:03:00,
2013-05-03 19:08:00,45.0,43.9,29.55,NE,45,7.8,9.4,96,0.03,,,0.32,WUHU216HW,2013-05-04 00:08:00,
2013-05-03 19:13:00,45.0,43.9,29.55,NNE,23,3.4,9.2,96,0.04,,,0.33,WUHU216HW,2013-05-04 00:13:00,
2013-05-03 19:18:00,45.0,43.9,29.56,North,0,9.8,9.8,96,0.04,,,0.33,WUHU216HW,2013-05-04 00:18:00,
2013-05-03 19:23:00,45.2,44.1,29.55,North,0,4.7,9.8,96,0.04,,,0.33,WUHU216HW,2013-05-04 00:23:00,
2013-05-03 19:28:00,45.2,44.1,29.55,NNE,23,5.8,6.0,96,0.03,,,0.33,WUHU216HW,2013-05-04 00:28:00,
2013-05-03 19:33:00,45.4,44.3,29.55,North,0,8.3,8.3,96,0.03,,,0.33,WUHU216HW,2013-05-04 00:33:00,
2013-05-03 19:38:00,45.4,44.3,29.55,North,0,5.4,8.3,96,0.03,,,0.33,WUHU216HW,2013-05-04 00:38:00,
2013-05-03 19:43:00,45.5,44.5,29.55,NW,315,5.1,8.3,96,0.03,,,0.33,WUHU216HW,2013-05-04 00:43:00,
2013-05-03 19:48:00,45.5,44.5,29.55,NE,45,4.7,5.4,96,0.02,,,0.33,WUHU216HW,2013-05-04 00:48:00,
2013-05-03 19:53:00,45.5,44.5,29.56,ENE,68,3.1,5.1,96,0.02,,,0.33,WUHU216HW,2013-05-04 00:53:00,
2013-05-03 19:58:00,45.5,44.5,29.55,North,0,4.7,4.7,96,0.02,,,0.33,WUHU216HW,2013-05-04 00:58:00,
2013-05-03 20:03:00,45.5,44.5,29.55,NNE,23,3.1,5.8,96,0.01,,,0.33,WUHU216HW,2013-05-04 01:03:00,
2013-05-03 20:08:00,45.7,44.6,29.56,NNE,23,4.0,6.9,96,0.00,,,0.33,WUHU216HW,2013-05-04 01:08:00,
2013-05-03 20:13:00,45.5,44.5,29.56,NNE,23,2.5,6.9,96,0.00,,,0.33,WUHU216HW,2013-05-04 01:13:00,
2013-05-03 20:18:00,45.7,44.6,29.56,ENE,68,5.6,5.6,96,0.00,,,0.33,WUHU216HW,2013-05-04 01:18:00,
2013-05-03 20:23:00,45.7,44.6,29.56,North,0,0.9,5.6,96,0.00,,,0.33,WUHU216HW,2013-05-04 01:23:00,
2013-05-03 20:28:00,45.7,44.6,29.55,NNE,23,4.9,5.6,96,0.00,,,0.33,WUHU216HW,2013-05-04 01:28:00,
2013-05-03 20:33:00,45.7,44.6,29.55,North,0,4.7,4.9,96,0.00,,,0.33,WUHU216HW,2013-05-04 01:33:00,
2013-05-03 20:38:00,45.7,44.6,29.55,North,0,6.0,6.9,96,0.00,,,0.33,WUHU216HW,2013-05-04 01:38:00,
2013-05-03 20:43:00,45.7,44.6,29.56,North,0,3.4,6.9,96,0.00,,,0.33,WUHU216HW,2013-05-04 01:43:00,
2013-05-03 20:48:00,45.7,44.6,29.55,North,0,5.4,6.0,96,0.00,,,0.33,WUHU216HW,2013-05-04 01:48:00,
2013-05-03 20:53:00,45.7,44.6,29.55,NNE,23,6.0,6.0,96,0.00,,,0.33,WUHU216HW,2013-05-04 01:53:00,
2013-05-03 20:58:00,45.7,44.6,29.54,North,0,7.2,7.8,96,0.00,,,0.33,WUHU216HW,2013-05-04 01:58:00,
2013-05-03 21:03:00,45.7,44.6,29.54,North,0,6.3,7.8,96,0.00,,,0.33,WUHU216HW,2013-05-04 02:03:00,
2013-05-03 21:08:00,45.7,44.6,29.54,North,0,8.3,8.3,96,0.00,,,0.33,WUHU216HW,2013-05-04 02:08:00,
2013-05-03 21:13:00,45.7,44.4,29.54,North,0,6.7,8.3,95,0.00,,,0.33,WUHU216HW,2013-05-04 02:13:00,
2013-05-03 21:18:00,45.7,44.6,29.54,North,0,6.9,8.3,96,0.00,,,0.33,WUHU216HW,2013-05-04 02:18:00,
2013-05-03 21:23:00,45.9,44.8,29.54,NNE,23,3.1,6.9,96,0.00,,,0.33,WUHU216HW,2013-05-04 02:23:00,
2013-05-03 21:28:00,45.9,44.8,29.54,North,0,3.4,6.9,96,0.00,,,0.33,WUHU216HW,2013-05-04 02:28:00,
2013-05-03 21:33:00,45.9,44.8,29.54,North,0,6.3,6.3,96,0.00,,,0.33,WUHU216HW,2013-05-04 02:33:00,
2013-05-03 21:38:00,45.9,44.8,29.55,North,0,4.0,6.3,96,0.00,,,0.33,WUHU216HW,2013-05-04 02:38:00,
2013-05-03 21:43:00,45.9,44.8,29.55,NE,45,2.9,6.3,96,0.00,,,0.33,WUHU216HW,2013-05-04 02:43:00,
2013-05-03 21:48:00,45.9,44.8,29.54,NNE,23,5.4,5.4,96,0.00,,,0.33,WUHU216HW,2013-05-04 02:48:00,
2013-05-03 21:53:00,45.9,44.8,29.55,NNE,23,4.9,5.4,96,0.00,,,0.33,WUHU216HW,2013-05-04 02:53:00,
2013-05-03 21:58:00,46.1,45.0,29.55,NNE,23,5.1,5.4,96,0.00,,,0.33,WUHU216HW,2013-05-04 02:58:00,
2013-05-03 22:03:00,46.1,45.0,29.55,North,0,4.5,5.4,96,0.00,,,0.33,WUHU216HW,2013-05-04 03:03:00,
2013-05-03 22:08:00,46.1,45.0,29.55,North,0,4.9,5.4,96,0.00,,,0.33,WUHU216HW,2013-05-04 03:08:00,
2013-05-03 22:13:00,46.1,45.0,29.55,North,0,4.7,4.9,96,0.00,,,0.33,WUHU216HW,2013-05-04 03:13:00,
2013-05-03 22:18:00,46.1,44.7,29.55,NE,45,4.7,6.9,95,0.00,,,0.33,WUHU216HW,2013-05-04 03:18:00,
2013-05-03 22:23:00,46.1,44.7,29.55,North,0,6.3,6.9,95,0.00,,,0.33,WUHU216HW,2013-05-04 03:23:00,
2013-05-03 22:28:00,46.1,45.0,29.54,NNE,23,5.6,6.3,96,0.00,,,0.33,WUHU216HW,2013-05-04 03:28:00,
2013-05-03 22:33:00,46.3,45.2,29.55,North,0,5.1,6.3,96,0.00,,,0.33,WUHU216HW,2013-05-04 03:33:00,
2013-05-03 22:38:00,46.3,44.9,29.54,NNE,23,8.3,8.3,95,0.00,,,0.33,WUHU216HW,2013-05-04 03:38:00,
2013-05-03 22:43:00,46.4,45.1,29.55,NNE,23,6.9,9.6,95,0.00,,,0.33,WUHU216HW,2013-05-04 03:43:00,
2013-05-03 22:48:00,46.4,45.1,29.55,NNE,23,4.0,9.6,95,0.00,,,0.33,WUHU216HW,2013-05-04 03:48:00,
2013-05-03 22:53:00,46.4,45.1,29.54,ENE,68,4.3,6.9,95,0.00,,,0.33,WUHU216HW,2013-05-04 03:53:00,
2013-05-03 22:58:00,46.4,45.1,29.54,ENE,68,6.5,6.5,95,0.00,,,0.33,WUHU216HW,2013-05-04 03:58:00,
2013-05-03 23:01:00,46.4,45.1,29.54,North,0,4.9,6.5,95,0.00,,,0.33,WUHU216HW,2013-05-04 04:01:00,
2013-05-03 23:06:00,46.4,45.1,29.54,North,0,1.8,6.5,95,0.00,,,0.33,WUHU216HW,2013-05-04 04:06:00,
2013-05-03 23:11:00,46.4,45.1,29.54,ENE,68,5.1,5.1,95,0.00,,,0.33,WUHU216HW,2013-05-04 04:11:00,
2013-05-03 23:16:00,46.4,45.1,29.54,NE,45,4.7,5.1,95,0.00,,,0.33,WUHU216HW,2013-05-04 04:16:00,
2013-05-03 23:21:00,46.6,45.3,29.54,NE,45,8.1,8.1,95,0.00,,,0.33,WUHU216HW,2013-05-04 04:21:00,
2013-05-03 23:26:00,46.6,45.3,29.54,NNE,23,3.8,8.1,95,0.00,,,0.33,WUHU216HW,2013-05-04 04:26:00,
2013-05-03 23:31:00,46.6,45.3,29.54,NNW,338,4.0,8.1,95,0.00,,,0.33,WUHU216HW,2013-05-04 04:31:00,
2013-05-03 23:36:00,46.6,45.3,29.54,NE,45,4.7,4.7,95,0.00,,,0.33,WUHU216HW,2013-05-04 04:36:00,
2013-05-03 23:41:00,46.4,45.1,29.54,NE,45,4.5,4.7,95,0.00,,,0.33,WUHU216HW,2013-05-04 04:41:00,
2013-05-03 23:46:00,46.4,45.1,29.54,North,0,4.0,4.7,95,0.00,,,0.33,WUHU216HW,2013-05-04 04:46:00,
2013-05-03 23:51:00,46.4,45.1,29.54,NNE,23,3.8,4.5,95,0.00,,,0.33,WUHU216HW,2013-05-04 04:51:00,
2013-05-03 23:56:00,46.4,45.1,29.54,NNE,23,3.4,4.0,95,0.00,,,0.33,WUHU216HW,2013-05-04 04:56:00,